sensor_id;sensor_type;location;lat;lon;timestamp;pressure;altitude;pressure_sealevel;temperature;humidity
929;BME280;451;47.988;7.842;2024-02-26T00:02:53;96528.34;;;9.20;84.78
929;BME280;451;47.988;7.842;2024-02-26T00:11:57;96510.16;;;8.81;91.09
929;BME280;451;47.988;7.842;2024-02-26T00:21:04;96523.78;;;8.12;100.00
929;BME280;451;47.988;7.842;2024-02-26T00:30:09;96509.28;;;8.29;100.00
929;BME280;451;47.988;7.842;2024-02-26T00:39:15;96487.38;;;8.10;100.00
929;BME280;451;47.988;7.842;2024-02-26T00:48:19;96498.81;;;8.29;99.89
929;BME280;451;47.988;7.842;2024-02-26T00:57:29;96498.00;;;8.29;98.07
929;BME280;451;47.988;7.842;2024-02-26T01:06:40;96514.44;;;8.62;94.88
929;BME280;451;47.988;7.842;2024-02-26T01:15:44;96488.34;;;8.49;95.86
929;BME280;451;47.988;7.842;2024-02-26T01:24:48;96496.72;;;8.64;92.80
929;BME280;451;47.988;7.842;2024-02-26T01:33:55;96480.22;;;8.64;93.90
929;BME280;451;47.988;7.842;2024-02-26T01:43:01;96465.09;;;8.66;91.92
929;BME280;451;47.988;7.842;2024-02-26T01:52:07;96471.28;;;8.78;92.90
929;BME280;451;47.988;7.842;2024-02-26T02:01:16;96450.03;;;8.55;91.28
929;BME280;451;47.988;7.842;2024-02-26T02:10:26;96478.34;;;8.77;92.52
929;BME280;451;47.988;7.842;2024-02-26T02:19:35;96477.72;;;8.82;86.55
929;BME280;451;47.988;7.842;2024-02-26T02:28:41;96480.41;;;9.07;97.52
929;BME280;451;47.988;7.842;2024-02-26T02:37:49;96452.53;;;8.36;100.00
929;BME280;451;47.988;7.842;2024-02-26T02:47:04;96477.91;;;8.16;100.00
929;BME280;451;47.988;7.842;2024-02-26T02:56:08;96477.53;;;7.86;100.00
929;BME280;451;47.988;7.842;2024-02-26T03:05:19;96489.19;;;7.64;100.00
929;BME280;451;47.988;7.842;2024-02-26T03:14:22;96473.06;;;7.34;100.00
929;BME280;451;47.988;7.842;2024-02-26T03:23:30;96518.91;;;7.30;100.00
929;BME280;451;47.988;7.842;2024-02-26T03:32:40;96466.94;;;6.87;100.00
929;BME280;451;47.988;7.842;2024-02-26T03:41:45;96506.19;;;7.14;100.00
929;BME280;451;47.988;7.842;2024-02-26T03:50:52;96506.38;;;6.99;100.00
929;BME280;451;47.988;7.842;2024-02-26T04:00:00;96537.75;;;7.19;100.00
929;BME280;451;47.988;7.842;2024-02-26T04:09:16;96543.75;;;7.13;100.00
929;BME280;451;47.988;7.842;2024-02-26T04:18:40;96531.72;;;7.12;100.00
929;BME280;451;47.988;7.842;2024-02-26T04:27:51;96558.63;;;7.06;100.00
929;BME280;451;47.988;7.842;2024-02-26T04:36:57;96554.97;;;7.00;100.00
929;BME280;451;47.988;7.842;2024-02-26T04:46:00;96513.34;;;6.85;100.00
929;BME280;451;47.988;7.842;2024-02-26T04:55:06;96545.34;;;7.01;100.00
929;BME280;451;47.988;7.842;2024-02-26T05:04:10;96537.53;;;7.14;100.00
929;BME280;451;47.988;7.842;2024-02-26T05:13:15;96539.50;;;6.99;100.00
929;BME280;451;47.988;7.842;2024-02-26T05:22:20;96485.56;;;6.71;100.00
929;BME280;451;47.988;7.842;2024-02-26T05:31:29;96514.56;;;6.89;100.00
929;BME280;451;47.988;7.842;2024-02-26T05:40:32;96533.72;;;7.10;100.00
929;BME280;451;47.988;7.842;2024-02-26T05:49:43;96497.09;;;6.97;100.00
929;BME280;451;47.988;7.842;2024-02-26T05:58:50;96509.78;;;7.06;100.00
929;BME280;451;47.988;7.842;2024-02-26T06:07:56;96481.06;;;7.13;100.00
929;BME280;451;47.988;7.842;2024-02-26T06:17:02;96510.44;;;7.21;100.00
929;BME280;451;47.988;7.842;2024-02-26T06:26:07;96560.97;;;7.48;100.00
929;BME280;451;47.988;7.842;2024-02-26T06:44:45;96545.03;;;7.30;100.00
929;BME280;451;47.988;7.842;2024-02-26T06:53:55;96515.69;;;7.28;100.00
929;BME280;451;47.988;7.842;2024-02-26T07:03:01;96529.63;;;7.61;100.00
929;BME280;451;47.988;7.842;2024-02-26T07:12:05;96550.53;;;7.48;100.00
929;BME280;451;47.988;7.842;2024-02-26T07:21:13;96580.72;;;7.70;100.00
929;BME280;451;47.988;7.842;2024-02-26T07:30:20;96527.38;;;7.45;100.00
929;BME280;451;47.988;7.842;2024-02-26T07:39:25;96553.16;;;7.88;100.00
929;BME280;451;47.988;7.842;2024-02-26T07:48:38;96545.31;;;8.07;100.00
929;BME280;451;47.988;7.842;2024-02-26T07:57:47;96577.75;;;8.53;100.00
929;BME280;451;47.988;7.842;2024-02-26T08:06:54;96566.25;;;8.67;100.00
929;BME280;451;47.988;7.842;2024-02-26T08:16:05;96577.06;;;8.90;100.00
929;BME280;451;47.988;7.842;2024-02-26T08:25:10;96541.91;;;9.11;100.00
929;BME280;451;47.988;7.842;2024-02-26T08:34:15;96575.06;;;9.37;100.00
929;BME280;451;47.988;7.842;2024-02-26T08:43:20;96597.53;;;9.95;100.00
929;BME280;451;47.988;7.842;2024-02-26T08:52:26;96609.19;;;10.80;100.00
929;BME280;451;47.988;7.842;2024-02-26T09:01:31;96582.44;;;10.65;100.00
929;BME280;451;47.988;7.842;2024-02-26T09:10:37;96595.75;;;10.88;100.00
929;BME280;451;47.988;7.842;2024-02-26T09:19:44;96601.09;;;10.57;98.89
929;BME280;451;47.988;7.842;2024-02-26T09:28:53;96619.72;;;11.17;94.79
929;BME280;451;47.988;7.842;2024-02-26T09:38:07;96648.19;;;11.02;99.55
929;BME280;451;47.988;7.842;2024-02-26T09:47:17;96652.00;;;11.42;96.31
929;BME280;451;47.988;7.842;2024-02-26T09:56:27;96626.25;;;11.44;100.00
929;BME280;451;47.988;7.842;2024-02-26T10:05:35;96662.53;;;11.79;100.00
929;BME280;451;47.988;7.842;2024-02-26T10:14:48;96681.22;;;12.48;100.00
929;BME280;451;47.988;7.842;2024-02-26T10:24:00;96655.56;;;13.02;99.24
929;BME280;451;47.988;7.842;2024-02-26T10:33:17;96656.00;;;13.46;100.00
929;BME280;451;47.988;7.842;2024-02-26T10:42:25;96642.28;;;12.74;100.00
929;BME280;451;47.988;7.842;2024-02-26T10:51:30;96676.69;;;13.25;95.18
929;BME280;451;47.988;7.842;2024-02-26T11:00:38;96680.66;;;12.93;88.58
929;BME280;451;47.988;7.842;2024-02-26T11:09:44;96689.81;;;13.72;87.30
929;BME280;451;47.988;7.842;2024-02-26T11:19:00;96646.13;;;13.53;80.45
929;BME280;451;47.988;7.842;2024-02-26T11:28:08;96653.00;;;13.54;79.50
929;BME280;451;47.988;7.842;2024-02-26T11:37:19;96677.47;;;14.18;78.21
929;BME280;451;47.988;7.842;2024-02-26T11:46:28;96682.19;;;14.16;80.76
929;BME280;451;47.988;7.842;2024-02-26T11:55:34;96675.09;;;14.61;82.76
929;BME280;451;47.988;7.842;2024-02-26T12:04:56;96659.03;;;15.01;83.37
929;BME280;451;47.988;7.842;2024-02-26T12:14:26;96645.50;;;15.36;80.98
929;BME280;451;47.988;7.842;2024-02-26T12:23:30;96683.03;;;15.33;82.15
929;BME280;451;47.988;7.842;2024-02-26T12:32:36;96670.97;;;14.53;81.58
929;BME280;451;47.988;7.842;2024-02-26T12:41:50;96682.84;;;15.40;79.91
929;BME280;451;47.988;7.842;2024-02-26T12:50:59;96668.03;;;16.31;75.12
929;BME280;451;47.988;7.842;2024-02-26T13:00:05;96668.41;;;15.47;73.53
929;BME280;451;47.988;7.842;2024-02-26T13:09:16;96665.44;;;15.87;72.82
929;BME280;451;47.988;7.842;2024-02-26T13:18:28;96678.38;;;14.85;77.22
929;BME280;451;47.988;7.842;2024-02-26T13:27:43;96700.69;;;15.27;74.58
929;BME280;451;47.988;7.842;2024-02-26T13:36:47;96662.13;;;15.15;74.51
929;BME280;451;47.988;7.842;2024-02-26T13:45:54;96677.38;;;14.74;73.12
929;BME280;451;47.988;7.842;2024-02-26T13:54:57;96665.47;;;14.72;75.14
929;BME280;451;47.988;7.842;2024-02-26T14:04:03;96667.63;;;14.91;73.18
929;BME280;451;47.988;7.842;2024-02-26T14:13:07;96680.72;;;15.20;72.69
929;BME280;451;47.988;7.842;2024-02-26T14:22:14;96673.94;;;14.57;74.35
929;BME280;451;47.988;7.842;2024-02-26T14:31:24;96654.81;;;14.22;75.92
929;BME280;451;47.988;7.842;2024-02-26T14:40:46;96635.63;;;14.43;74.77
929;BME280;451;47.988;7.842;2024-02-26T14:59:31;96650.31;;;14.22;79.08
929;BME280;451;47.988;7.842;2024-02-26T15:08:38;96674.59;;;14.47;79.66
929;BME280;451;47.988;7.842;2024-02-26T15:17:53;96671.13;;;14.47;77.75
929;BME280;451;47.988;7.842;2024-02-26T15:26:57;96699.69;;;14.78;77.91
929;BME280;451;47.988;7.842;2024-02-26T15:36:22;96656.59;;;14.33;79.27
929;BME280;451;47.988;7.842;2024-02-26T15:45:32;96659.91;;;14.57;82.58
929;BME280;451;47.988;7.842;2024-02-26T15:54:42;96710.41;;;14.55;83.24
929;BME280;451;47.988;7.842;2024-02-26T16:03:55;96695.59;;;14.71;83.17
929;BME280;451;47.988;7.842;2024-02-26T16:13:04;96721.09;;;14.60;83.40
929;BME280;451;47.988;7.842;2024-02-26T16:22:30;96769.97;;;14.18;86.26
929;BME280;451;47.988;7.842;2024-02-26T16:32:31;96780.38;;;13.84;90.50
929;BME280;451;47.988;7.842;2024-02-26T16:41:58;96803.47;;;13.65;93.08
929;BME280;451;47.988;7.842;2024-02-26T16:52:15;96775.94;;;13.38;94.37
929;BME280;451;47.988;7.842;2024-02-26T17:11:05;96800.66;;;12.61;100.00
929;BME280;451;47.988;7.842;2024-02-26T17:20:16;96803.53;;;11.93;100.00
929;BME280;451;47.988;7.842;2024-02-26T17:29:26;96816.91;;;11.48;100.00
929;BME280;451;47.988;7.842;2024-02-26T17:38:43;96817.56;;;11.62;100.00
929;BME280;451;47.988;7.842;2024-02-26T17:48:07;96868.22;;;11.57;100.00
929;BME280;451;47.988;7.842;2024-02-26T17:57:11;96857.28;;;11.11;98.73
929;BME280;451;47.988;7.842;2024-02-26T18:06:37;96909.28;;;10.71;98.48
929;BME280;451;47.988;7.842;2024-02-26T18:15:56;96882.16;;;10.12;100.00
929;BME280;451;47.988;7.842;2024-02-26T18:25:29;96937.72;;;10.36;98.53
929;BME280;451;47.988;7.842;2024-02-26T18:34:51;96910.25;;;10.19;88.59
929;BME280;451;47.988;7.842;2024-02-26T18:44:03;96943.97;;;10.41;86.25
929;BME280;451;47.988;7.842;2024-02-26T18:53:08;96986.00;;;10.35;86.01
929;BME280;451;47.988;7.842;2024-02-26T19:02:14;97003.13;;;10.57;81.36
929;BME280;451;47.988;7.842;2024-02-26T19:21:06;96953.09;;;9.60;83.08
929;BME280;451;47.988;7.842;2024-02-26T19:30:15;97028.22;;;9.74;87.03
929;BME280;451;47.988;7.842;2024-02-26T19:39:38;96987.75;;;9.22;90.79
929;BME280;451;47.988;7.842;2024-02-26T19:49:10;97055.19;;;9.42;88.81
929;BME280;451;47.988;7.842;2024-02-26T19:58:16;97059.59;;;9.35;92.08
929;BME280;451;47.988;7.842;2024-02-26T20:07:21;97073.59;;;9.07;92.00
929;BME280;451;47.988;7.842;2024-02-26T20:16:47;97037.38;;;8.76;92.39
929;BME280;451;47.988;7.842;2024-02-26T20:26:00;97080.03;;;8.98;90.70
929;BME280;451;47.988;7.842;2024-02-26T20:35:07;97081.56;;;8.86;90.59
929;BME280;451;47.988;7.842;2024-02-26T20:44:13;97123.19;;;9.02;91.08
929;BME280;451;47.988;7.842;2024-02-26T20:53:18;97083.94;;;8.81;90.20
929;BME280;451;47.988;7.842;2024-02-26T21:02:28;97149.75;;;8.93;89.93
929;BME280;451;47.988;7.842;2024-02-26T21:11:35;97198.38;;;9.02;93.97
929;BME280;451;47.988;7.842;2024-02-26T21:20:40;97167.47;;;8.90;91.75
929;BME280;451;47.988;7.842;2024-02-26T21:29:46;97171.53;;;8.93;89.40
929;BME280;451;47.988;7.842;2024-02-26T21:38:54;97219.50;;;9.21;87.96
929;BME280;451;47.988;7.842;2024-02-26T21:48:03;97217.63;;;9.15;88.42
929;BME280;451;47.988;7.842;2024-02-26T21:57:08;97225.03;;;9.05;88.41
929;BME280;451;47.988;7.842;2024-02-26T22:06:13;97242.41;;;9.13;89.30
929;BME280;451;47.988;7.842;2024-02-26T22:15:21;97246.59;;;9.07;90.77
929;BME280;451;47.988;7.842;2024-02-26T22:24:28;97266.06;;;9.19;88.93
929;BME280;451;47.988;7.842;2024-02-26T22:33:33;97280.31;;;9.38;88.13
929;BME280;451;47.988;7.842;2024-02-26T22:42:48;97280.97;;;9.47;85.84
929;BME280;451;47.988;7.842;2024-02-26T22:51:57;97304.13;;;9.37;86.31
929;BME280;451;47.988;7.842;2024-02-26T23:01:03;97293.66;;;9.15;89.91
929;BME280;451;47.988;7.842;2024-02-26T23:10:07;97333.28;;;8.99;94.40
929;BME280;451;47.988;7.842;2024-02-26T23:19:12;97301.13;;;8.69;97.43
929;BME280;451;47.988;7.842;2024-02-26T23:28:15;97321.63;;;8.30;100.00
929;BME280;451;47.988;7.842;2024-02-26T23:37:21;97325.44;;;8.13;100.00
929;BME280;451;47.988;7.842;2024-02-26T23:46:24;97333.03;;;8.07;100.00
929;BME280;451;47.988;7.842;2024-02-26T23:55:29;97294.00;;;7.77;100.00
